Marlinton, WV

11:18 AM EDT on August 30, 2016 (GMT -0400)
RAWS | | Change Station

Elev 3082 ft 38.22 °N, 80.04 °W | Updated 1 hour ago

Mostly Cloudy
Mostly Cloudy
71.0 °F
Feels Like 71 °F
N
0.0
Wind Variable Wind from North
Gusts 2.0 mph

Today
High -- | Low -- °F
--% Chance of Precip.
Yesterday
High -- | Low -- °F
Precip. -- in
Pressure 30.30 in
Visibility 10.0 miles
Clouds Mostly Cloudy 3200 ft
Mostly Cloudy 4500 ft
Heat Index 71 °F
Dew Point 66.0 °F
Humidity 83%
Rainfall in
Snow Depth Not available.
6:48 AM 7:52 PM
Waning Crescent, 3% visible
METAR KHSP 301455Z AUTO 11004KT 10SM BKN032 BKN045 22/17 A3030 RMK AO2 T02230167
Pressure 30.30 in
Visibility 10.0 miles
Clouds Mostly Cloudy 3200 ft
Mostly Cloudy 4500 ft
Heat Index 71 °F
Dew Point 66.0 °F
Humidity 83%
Rainfall in
Snow Depth Not available.
6:48 AM 7:52 PM
Waning Crescent, 3% visible
METAR KHSP 301455Z AUTO 11004KT 10SM BKN032 BKN045 22/17 A3030 RMK AO2 T02230167

10-Day Weather Forecast

Almanac

Astronomy

Aug. 30, 2016 Rise Set
Actual Time
Civil Twilight
Nautical Twilight
Astronomical Twilight
Moon
Length of Visible Light
Length of Day
Tomorrow will be .
, % of the Moon is Illuminated

Today's Extremes

State Highs State Lows

Community

WunderPhotos

Upload Photos

1,935,855 photos uploaded!

WunderBlog® & News

Nearby

Air Quality

  Air Quality AQ Index Pollutant
Not available.

Snow Depth

Station Depth Elevation

Earthquake Activity

City Distance Mag. Time & Date
Minimum magnitude displayed is 2.5.

Coastal Water Temperatures

Place Temperature

Stations

Nearby Weather Stations

Station Location Temp. Windchill Dew Point Humidity Wind Precip. Elev Updated Type
                   

Watches & Warnings

There are currently no watches in effect.